sensor_id;sensor_type;location;lat;lon;timestamp;P1;durP1;ratioP1;P2;durP2;ratioP2
17510;SDS011;8873;48.818;9.422;2024-03-02T00:01:41;25.75;;;10.32;;
17510;SDS011;8873;48.818;9.422;2024-03-02T00:04:09;24.98;;;11.63;;
17510;SDS011;8873;48.818;9.422;2024-03-02T00:06:37;23.10;;;10.52;;
17510;SDS011;8873;48.818;9.422;2024-03-02T00:09:05;28.08;;;10.00;;
17510;SDS011;8873;48.818;9.422;2024-03-02T00:11:38;24.67;;;10.68;;
17510;SDS011;8873;48.818;9.422;2024-03-02T00:14:06;25.05;;;10.50;;
17510;SDS011;8873;48.818;9.422;2024-03-02T00:16:34;32.22;;;10.93;;
17510;SDS011;8873;48.818;9.422;2024-03-02T00:19:03;25.48;;;10.93;;
17510;SDS011;8873;48.818;9.422;2024-03-02T00:21:31;23.60;;;9.35;;
17510;SDS011;8873;48.818;9.422;2024-03-02T00:24:00;20.08;;;9.77;;
17510;SDS011;8873;48.818;9.422;2024-03-02T00:26:29;26.67;;;9.88;;
17510;SDS011;8873;48.818;9.422;2024-03-02T00:29:00;21.08;;;11.02;;
17510;SDS011;8873;48.818;9.422;2024-03-02T00:31:27;29.80;;;11.43;;
17510;SDS011;8873;48.818;9.422;2024-03-02T00:33:56;24.40;;;10.38;;
17510;SDS011;8873;48.818;9.422;2024-03-02T00:36:28;28.23;;;11.32;;
17510;SDS011;8873;48.818;9.422;2024-03-02T00:38:56;22.92;;;10.32;;
17510;SDS011;8873;48.818;9.422;2024-03-02T00:41:29;22.65;;;10.60;;
17510;SDS011;8873;48.818;9.422;2024-03-02T00:44:01;20.35;;;10.40;;
17510;SDS011;8873;48.818;9.422;2024-03-02T00:46:33;23.90;;;10.68;;
17510;SDS011;8873;48.818;9.422;2024-03-02T00:49:02;28.60;;;11.05;;
17510;SDS011;8873;48.818;9.422;2024-03-02T00:51:30;28.95;;;10.98;;
17510;SDS011;8873;48.818;9.422;2024-03-02T00:53:59;30.05;;;10.25;;
17510;SDS011;8873;48.818;9.422;2024-03-02T00:56:28;25.98;;;9.90;;
17510;SDS011;8873;48.818;9.422;2024-03-02T00:58:56;25.27;;;9.95;;
17510;SDS011;8873;48.818;9.422;2024-03-02T01:01:25;22.30;;;9.85;;
17510;SDS011;8873;48.818;9.422;2024-03-02T01:03:59;27.92;;;10.52;;
17510;SDS011;8873;48.818;9.422;2024-03-02T01:06:28;21.92;;;9.77;;
17510;SDS011;8873;48.818;9.422;2024-03-02T01:08:58;26.90;;;10.93;;
17510;SDS011;8873;48.818;9.422;2024-03-02T01:11:25;24.83;;;10.38;;
17510;SDS011;8873;48.818;9.422;2024-03-02T01:13:53;31.58;;;11.63;;
17510;SDS011;8873;48.818;9.422;2024-03-02T01:16:21;30.50;;;12.32;;
17510;SDS011;8873;48.818;9.422;2024-03-02T01:18:50;29.70;;;11.63;;
17510;SDS011;8873;48.818;9.422;2024-03-02T01:21:18;28.45;;;10.95;;
17510;SDS011;8873;48.818;9.422;2024-03-02T01:23:46;29.67;;;12.23;;
17510;SDS011;8873;48.818;9.422;2024-03-02T01:26:15;29.27;;;10.43;;
17510;SDS011;8873;48.818;9.422;2024-03-02T01:28:43;29.35;;;10.63;;
17510;SDS011;8873;48.818;9.422;2024-03-02T01:31:11;29.98;;;10.48;;
17510;SDS011;8873;48.818;9.422;2024-03-02T01:33:39;28.83;;;10.68;;
17510;SDS011;8873;48.818;9.422;2024-03-02T01:36:08;29.25;;;12.13;;
17510;SDS011;8873;48.818;9.422;2024-03-02T01:38:37;28.27;;;10.32;;
17510;SDS011;8873;48.818;9.422;2024-03-02T01:41:05;24.27;;;10.10;;
17510;SDS011;8873;48.818;9.422;2024-03-02T01:43:33;29.67;;;11.25;;
17510;SDS011;8873;48.818;9.422;2024-03-02T01:46:04;27.50;;;10.52;;
17510;SDS011;8873;48.818;9.422;2024-03-02T01:48:32;22.75;;;10.48;;
17510;SDS011;8873;48.818;9.422;2024-03-02T01:51:00;21.35;;;9.55;;
17510;SDS011;8873;48.818;9.422;2024-03-02T01:53:30;24.08;;;10.75;;
17510;SDS011;8873;48.818;9.422;2024-03-02T01:55:58;29.65;;;10.48;;
17510;SDS011;8873;48.818;9.422;2024-03-02T01:58:26;28.90;;;11.23;;
17510;SDS011;8873;48.818;9.422;2024-03-02T02:00:53;28.67;;;10.60;;
17510;SDS011;8873;48.818;9.422;2024-03-02T02:03:21;24.10;;;9.95;;
17510;SDS011;8873;48.818;9.422;2024-03-02T02:05:49;25.88;;;10.32;;
17510;SDS011;8873;48.818;9.422;2024-03-02T02:08:16;24.05;;;9.70;;
17510;SDS011;8873;48.818;9.422;2024-03-02T02:10:46;27.98;;;11.20;;
17510;SDS011;8873;48.818;9.422;2024-03-02T02:13:13;26.42;;;10.63;;
17510;SDS011;8873;48.818;9.422;2024-03-02T02:15:41;28.38;;;10.38;;
17510;SDS011;8873;48.818;9.422;2024-03-02T02:18:09;28.65;;;10.48;;
17510;SDS011;8873;48.818;9.422;2024-03-02T02:20:37;36.35;;;11.73;;
17510;SDS011;8873;48.818;9.422;2024-03-02T02:23:06;31.20;;;10.90;;
17510;SDS011;8873;48.818;9.422;2024-03-02T02:25:37;23.67;;;9.63;;
17510;SDS011;8873;48.818;9.422;2024-03-02T02:28:05;28.98;;;10.63;;
17510;SDS011;8873;48.818;9.422;2024-03-02T02:30:32;31.90;;;11.30;;
17510;SDS011;8873;48.818;9.422;2024-03-02T02:33:01;22.20;;;9.50;;
17510;SDS011;8873;48.818;9.422;2024-03-02T02:35:29;31.05;;;10.40;;
17510;SDS011;8873;48.818;9.422;2024-03-02T02:37:58;27.70;;;10.73;;
17510;SDS011;8873;48.818;9.422;2024-03-02T02:40:31;23.00;;;10.65;;
17510;SDS011;8873;48.818;9.422;2024-03-02T02:42:59;32.17;;;11.05;;
17510;SDS011;8873;48.818;9.422;2024-03-02T02:45:26;34.15;;;11.80;;
17510;SDS011;8873;48.818;9.422;2024-03-02T02:47:55;30.02;;;11.43;;
17510;SDS011;8873;48.818;9.422;2024-03-02T02:50:22;29.75;;;10.35;;
17510;SDS011;8873;48.818;9.422;2024-03-02T02:52:50;28.25;;;9.85;;
17510;SDS011;8873;48.818;9.422;2024-03-02T02:55:18;34.42;;;10.73;;
17510;SDS011;8873;48.818;9.422;2024-03-02T02:57:48;31.52;;;11.30;;
17510;SDS011;8873;48.818;9.422;2024-03-02T03:00:16;26.67;;;9.88;;
17510;SDS011;8873;48.818;9.422;2024-03-02T03:02:47;32.00;;;10.88;;
17510;SDS011;8873;48.818;9.422;2024-03-02T03:05:16;29.38;;;11.50;;
17510;SDS011;8873;48.818;9.422;2024-03-02T03:07:44;35.17;;;11.98;;
17510;SDS011;8873;48.818;9.422;2024-03-02T03:10:15;33.65;;;12.45;;
17510;SDS011;8873;48.818;9.422;2024-03-02T03:12:43;28.13;;;10.80;;
17510;SDS011;8873;48.818;9.422;2024-03-02T03:15:12;22.70;;;10.13;;
17510;SDS011;8873;48.818;9.422;2024-03-02T03:17:40;25.15;;;10.02;;
17510;SDS011;8873;48.818;9.422;2024-03-02T03:20:10;31.00;;;10.55;;
17510;SDS011;8873;48.818;9.422;2024-03-02T03:22:39;32.58;;;12.13;;
17510;SDS011;8873;48.818;9.422;2024-03-02T03:25:07;31.83;;;10.80;;
17510;SDS011;8873;48.818;9.422;2024-03-02T03:27:35;31.98;;;10.88;;
17510;SDS011;8873;48.818;9.422;2024-03-02T03:30:09;27.30;;;10.02;;
17510;SDS011;8873;48.818;9.422;2024-03-02T03:32:40;39.72;;;11.23;;
17510;SDS011;8873;48.818;9.422;2024-03-02T03:35:08;33.05;;;10.30;;
17510;SDS011;8873;48.818;9.422;2024-03-02T03:37:38;32.58;;;10.60;;
17510;SDS011;8873;48.818;9.422;2024-03-02T03:40:06;26.23;;;10.73;;
17510;SDS011;8873;48.818;9.422;2024-03-02T03:42:37;31.17;;;11.25;;
17510;SDS011;8873;48.818;9.422;2024-03-02T03:45:05;24.95;;;10.32;;
17510;SDS011;8873;48.818;9.422;2024-03-02T03:47:32;30.92;;;11.00;;
17510;SDS011;8873;48.818;9.422;2024-03-02T03:50:03;26.70;;;10.63;;
17510;SDS011;8873;48.818;9.422;2024-03-02T03:52:33;28.80;;;10.85;;
17510;SDS011;8873;48.818;9.422;2024-03-02T03:55:00;38.10;;;10.80;;
17510;SDS011;8873;48.818;9.422;2024-03-02T03:57:28;23.85;;;10.38;;
17510;SDS011;8873;48.818;9.422;2024-03-02T03:59:56;25.98;;;10.48;;
17510;SDS011;8873;48.818;9.422;2024-03-02T04:02:24;27.23;;;10.10;;
17510;SDS011;8873;48.818;9.422;2024-03-02T04:04:52;27.35;;;9.75;;
17510;SDS011;8873;48.818;9.422;2024-03-02T04:07:22;34.67;;;11.32;;
17510;SDS011;8873;48.818;9.422;2024-03-02T04:09:49;29.33;;;11.55;;
17510;SDS011;8873;48.818;9.422;2024-03-02T04:12:17;32.53;;;11.02;;
17510;SDS011;8873;48.818;9.422;2024-03-02T04:14:47;38.22;;;11.32;;
17510;SDS011;8873;48.818;9.422;2024-03-02T04:17:15;27.42;;;10.85;;
17510;SDS011;8873;48.818;9.422;2024-03-02T04:19:43;37.35;;;11.98;;
17510;SDS011;8873;48.818;9.422;2024-03-02T04:22:11;31.88;;;11.35;;
17510;SDS011;8873;48.818;9.422;2024-03-02T04:24:51;33.35;;;11.00;;
17510;SDS011;8873;48.818;9.422;2024-03-02T04:27:19;34.95;;;10.90;;
17510;SDS011;8873;48.818;9.422;2024-03-02T04:29:47;27.45;;;11.48;;
17510;SDS011;8873;48.818;9.422;2024-03-02T04:32:22;33.33;;;12.32;;
17510;SDS011;8873;48.818;9.422;2024-03-02T04:34:50;25.33;;;10.55;;
17510;SDS011;8873;48.818;9.422;2024-03-02T04:37:18;32.78;;;11.13;;
17510;SDS011;8873;48.818;9.422;2024-03-02T04:39:45;26.20;;;10.25;;
17510;SDS011;8873;48.818;9.422;2024-03-02T04:42:14;34.43;;;11.70;;
17510;SDS011;8873;48.818;9.422;2024-03-02T04:44:47;27.92;;;11.05;;
17510;SDS011;8873;48.818;9.422;2024-03-02T04:47:15;32.53;;;11.20;;
17510;SDS011;8873;48.818;9.422;2024-03-02T04:49:45;30.88;;;11.88;;
17510;SDS011;8873;48.818;9.422;2024-03-02T04:52:17;30.55;;;10.98;;
17510;SDS011;8873;48.818;9.422;2024-03-02T04:54:47;26.70;;;11.68;;
17510;SDS011;8873;48.818;9.422;2024-03-02T04:57:34;32.85;;;11.55;;
17510;SDS011;8873;48.818;9.422;2024-03-02T05:00:02;27.48;;;10.02;;
17510;SDS011;8873;48.818;9.422;2024-03-02T05:02:33;28.88;;;11.07;;
17510;SDS011;8873;48.818;9.422;2024-03-02T05:05:00;31.40;;;11.10;;
17510;SDS011;8873;48.818;9.422;2024-03-02T05:07:28;27.25;;;11.25;;
17510;SDS011;8873;48.818;9.422;2024-03-02T05:09:58;34.13;;;11.98;;
17510;SDS011;8873;48.818;9.422;2024-03-02T05:12:26;31.42;;;11.07;;
17510;SDS011;8873;48.818;9.422;2024-03-02T05:15:23;34.67;;;11.70;;
17510;SDS011;8873;48.818;9.422;2024-03-02T05:17:51;34.05;;;11.80;;
17510;SDS011;8873;48.818;9.422;2024-03-02T05:20:20;35.03;;;12.57;;
17510;SDS011;8873;48.818;9.422;2024-03-02T05:22:48;37.50;;;12.02;;
17510;SDS011;8873;48.818;9.422;2024-03-02T05:25:16;31.02;;;12.32;;
17510;SDS011;8873;48.818;9.422;2024-03-02T05:27:44;34.45;;;11.65;;
17510;SDS011;8873;48.818;9.422;2024-03-02T05:30:11;33.88;;;12.07;;
17510;SDS011;8873;48.818;9.422;2024-03-02T05:32:41;31.27;;;11.27;;
17510;SDS011;8873;48.818;9.422;2024-03-02T05:35:09;27.83;;;9.90;;
17510;SDS011;8873;48.818;9.422;2024-03-02T05:37:39;30.85;;;10.27;;
17510;SDS011;8873;48.818;9.422;2024-03-02T05:40:07;29.52;;;10.10;;
17510;SDS011;8873;48.818;9.422;2024-03-02T05:42:36;27.63;;;11.05;;
17510;SDS011;8873;48.818;9.422;2024-03-02T05:45:05;30.88;;;10.77;;
17510;SDS011;8873;48.818;9.422;2024-03-02T05:47:34;34.25;;;12.35;;
17510;SDS011;8873;48.818;9.422;2024-03-02T05:50:04;39.13;;;11.73;;
17510;SDS011;8873;48.818;9.422;2024-03-02T05:52:33;28.87;;;10.67;;
17510;SDS011;8873;48.818;9.422;2024-03-02T05:55:00;31.27;;;10.63;;
17510;SDS011;8873;48.818;9.422;2024-03-02T05:57:28;29.40;;;10.93;;
17510;SDS011;8873;48.818;9.422;2024-03-02T06:00:16;36.28;;;12.70;;
17510;SDS011;8873;48.818;9.422;2024-03-02T06:02:44;35.63;;;11.98;;
17510;SDS011;8873;48.818;9.422;2024-03-02T06:05:14;30.52;;;11.88;;
17510;SDS011;8873;48.818;9.422;2024-03-02T06:07:43;27.15;;;11.32;;
17510;SDS011;8873;48.818;9.422;2024-03-02T06:10:11;30.50;;;10.88;;
17510;SDS011;8873;48.818;9.422;2024-03-02T06:12:40;34.00;;;12.00;;
17510;SDS011;8873;48.818;9.422;2024-03-02T06:15:14;36.53;;;11.53;;
17510;SDS011;8873;48.818;9.422;2024-03-02T06:17:43;29.38;;;9.85;;
17510;SDS011;8873;48.818;9.422;2024-03-02T06:20:14;38.08;;;11.52;;
17510;SDS011;8873;48.818;9.422;2024-03-02T06:22:43;29.45;;;10.60;;
17510;SDS011;8873;48.818;9.422;2024-03-02T06:25:11;32.03;;;10.88;;
17510;SDS011;8873;48.818;9.422;2024-03-02T06:27:39;41.65;;;12.75;;
17510;SDS011;8873;48.818;9.422;2024-03-02T06:30:08;35.63;;;11.88;;
17510;SDS011;8873;48.818;9.422;2024-03-02T06:32:36;40.83;;;13.20;;
17510;SDS011;8873;48.818;9.422;2024-03-02T06:35:04;28.92;;;11.48;;
17510;SDS011;8873;48.818;9.422;2024-03-02T06:37:36;35.78;;;11.38;;
17510;SDS011;8873;48.818;9.422;2024-03-02T06:40:04;33.27;;;11.43;;
17510;SDS011;8873;48.818;9.422;2024-03-02T06:42:34;30.40;;;10.77;;
17510;SDS011;8873;48.818;9.422;2024-03-02T06:45:02;32.65;;;11.10;;
17510;SDS011;8873;48.818;9.422;2024-03-02T06:47:29;33.57;;;11.37;;
17510;SDS011;8873;48.818;9.422;2024-03-02T06:50:00;33.53;;;11.70;;
17510;SDS011;8873;48.818;9.422;2024-03-02T06:52:28;32.17;;;12.27;;
17510;SDS011;8873;48.818;9.422;2024-03-02T06:54:57;32.08;;;11.00;;
17510;SDS011;8873;48.818;9.422;2024-03-02T06:57:26;34.30;;;10.95;;
17510;SDS011;8873;48.818;9.422;2024-03-02T06:59:54;34.58;;;11.40;;
17510;SDS011;8873;48.818;9.422;2024-03-02T07:02:24;33.27;;;11.60;;
17510;SDS011;8873;48.818;9.422;2024-03-02T07:04:53;31.45;;;11.25;;
17510;SDS011;8873;48.818;9.422;2024-03-02T07:07:20;30.10;;;11.18;;
17510;SDS011;8873;48.818;9.422;2024-03-02T07:09:48;35.38;;;10.65;;
17510;SDS011;8873;48.818;9.422;2024-03-02T07:12:17;26.77;;;10.65;;
17510;SDS011;8873;48.818;9.422;2024-03-02T07:14:48;35.55;;;12.32;;
17510;SDS011;8873;48.818;9.422;2024-03-02T07:17:37;31.40;;;11.07;;
17510;SDS011;8873;48.818;9.422;2024-03-02T07:20:05;34.63;;;11.52;;
17510;SDS011;8873;48.818;9.422;2024-03-02T07:22:33;35.22;;;11.77;;
17510;SDS011;8873;48.818;9.422;2024-03-02T07:25:01;36.13;;;12.73;;
17510;SDS011;8873;48.818;9.422;2024-03-02T07:27:32;28.48;;;10.68;;
17510;SDS011;8873;48.818;9.422;2024-03-02T07:30:02;41.90;;;11.75;;
17510;SDS011;8873;48.818;9.422;2024-03-02T07:32:30;33.55;;;11.20;;
17510;SDS011;8873;48.818;9.422;2024-03-02T07:34:58;41.97;;;13.55;;
17510;SDS011;8873;48.818;9.422;2024-03-02T07:37:27;37.97;;;13.00;;
17510;SDS011;8873;48.818;9.422;2024-03-02T07:39:55;37.22;;;12.85;;
17510;SDS011;8873;48.818;9.422;2024-03-02T07:42:23;30.13;;;11.48;;
17510;SDS011;8873;48.818;9.422;2024-03-02T07:44:54;36.20;;;10.70;;
17510;SDS011;8873;48.818;9.422;2024-03-02T07:47:22;32.17;;;11.88;;
17510;SDS011;8873;48.818;9.422;2024-03-02T07:49:50;38.78;;;13.20;;
17510;SDS011;8873;48.818;9.422;2024-03-02T07:52:18;47.03;;;14.02;;
17510;SDS011;8873;48.818;9.422;2024-03-02T07:54:48;43.58;;;12.80;;
17510;SDS011;8873;48.818;9.422;2024-03-02T07:57:16;35.70;;;12.60;;
17510;SDS011;8873;48.818;9.422;2024-03-02T07:59:43;38.78;;;13.30;;
17510;SDS011;8873;48.818;9.422;2024-03-02T08:02:13;38.35;;;12.82;;
17510;SDS011;8873;48.818;9.422;2024-03-02T08:04:40;43.22;;;13.50;;
17510;SDS011;8873;48.818;9.422;2024-03-02T08:07:08;39.67;;;14.25;;
17510;SDS011;8873;48.818;9.422;2024-03-02T08:09:36;45.20;;;13.95;;
17510;SDS011;8873;48.818;9.422;2024-03-02T08:12:04;38.42;;;13.30;;
17510;SDS011;8873;48.818;9.422;2024-03-02T08:14:32;46.08;;;13.35;;
17510;SDS011;8873;48.818;9.422;2024-03-02T08:16:59;35.67;;;12.90;;
17510;SDS011;8873;48.818;9.422;2024-03-02T08:19:31;31.58;;;12.30;;
17510;SDS011;8873;48.818;9.422;2024-03-02T08:21:59;35.30;;;12.38;;
17510;SDS011;8873;48.818;9.422;2024-03-02T08:24:26;37.47;;;13.38;;
17510;SDS011;8873;48.818;9.422;2024-03-02T08:26:54;44.40;;;12.07;;
17510;SDS011;8873;48.818;9.422;2024-03-02T08:29:22;43.17;;;14.13;;
17510;SDS011;8873;48.818;9.422;2024-03-02T08:31:50;33.05;;;11.90;;
17510;SDS011;8873;48.818;9.422;2024-03-02T08:34:17;41.58;;;14.63;;
17510;SDS011;8873;48.818;9.422;2024-03-02T08:36:47;40.55;;;14.40;;
17510;SDS011;8873;48.818;9.422;2024-03-02T08:39:15;39.33;;;12.23;;
17510;SDS011;8873;48.818;9.422;2024-03-02T08:41:42;39.40;;;13.07;;
17510;SDS011;8873;48.818;9.422;2024-03-02T08:44:11;33.60;;;13.00;;
17510;SDS011;8873;48.818;9.422;2024-03-02T08:46:41;44.20;;;12.77;;
17510;SDS011;8873;48.818;9.422;2024-03-02T08:49:09;45.72;;;13.05;;
17510;SDS011;8873;48.818;9.422;2024-03-02T08:51:37;39.70;;;13.75;;
17510;SDS011;8873;48.818;9.422;2024-03-02T08:54:06;32.20;;;12.40;;
17510;SDS011;8873;48.818;9.422;2024-03-02T08:56:33;38.60;;;12.98;;
17510;SDS011;8873;48.818;9.422;2024-03-02T08:59:02;30.17;;;11.80;;
17510;SDS011;8873;48.818;9.422;2024-03-02T09:01:30;35.08;;;12.45;;
17510;SDS011;8873;48.818;9.422;2024-03-02T09:03:59;33.13;;;12.63;;
17510;SDS011;8873;48.818;9.422;2024-03-02T09:06:27;42.67;;;14.18;;
17510;SDS011;8873;48.818;9.422;2024-03-02T09:09:08;43.50;;;14.45;;
17510;SDS011;8873;48.818;9.422;2024-03-02T09:11:35;41.05;;;13.85;;
17510;SDS011;8873;48.818;9.422;2024-03-02T09:14:03;39.13;;;14.70;;
17510;SDS011;8873;48.818;9.422;2024-03-02T09:16:31;43.35;;;14.50;;
17510;SDS011;8873;48.818;9.422;2024-03-02T09:19:01;47.45;;;14.98;;
17510;SDS011;8873;48.818;9.422;2024-03-02T09:21:29;43.65;;;16.17;;
17510;SDS011;8873;48.818;9.422;2024-03-02T09:23:57;40.45;;;14.80;;
17510;SDS011;8873;48.818;9.422;2024-03-02T09:26:26;37.08;;;13.98;;
17510;SDS011;8873;48.818;9.422;2024-03-02T09:28:54;40.35;;;14.38;;
17510;SDS011;8873;48.818;9.422;2024-03-02T09:31:22;37.80;;;14.65;;
17510;SDS011;8873;48.818;9.422;2024-03-02T09:33:52;37.97;;;14.00;;
17510;SDS011;8873;48.818;9.422;2024-03-02T09:36:20;32.88;;;11.88;;
17510;SDS011;8873;48.818;9.422;2024-03-02T09:38:50;29.10;;;10.73;;
17510;SDS011;8873;48.818;9.422;2024-03-02T09:41:18;19.40;;;9.68;;
17510;SDS011;8873;48.818;9.422;2024-03-02T09:43:48;17.23;;;8.40;;
17510;SDS011;8873;48.818;9.422;2024-03-02T09:46:16;18.65;;;8.05;;
17510;SDS011;8873;48.818;9.422;2024-03-02T09:48:43;16.35;;;7.90;;
17510;SDS011;8873;48.818;9.422;2024-03-02T09:51:16;16.25;;;7.18;;
17510;SDS011;8873;48.818;9.422;2024-03-02T09:53:46;14.73;;;6.80;;
17510;SDS011;8873;48.818;9.422;2024-03-02T09:56:14;13.55;;;6.00;;
17510;SDS011;8873;48.818;9.422;2024-03-02T09:58:47;14.40;;;6.22;;
17510;SDS011;8873;48.818;9.422;2024-03-02T10:01:15;14.02;;;6.50;;
17510;SDS011;8873;48.818;9.422;2024-03-02T10:03:44;12.02;;;5.97;;
17510;SDS011;8873;48.818;9.422;2024-03-02T10:06:19;17.05;;;7.88;;
17510;SDS011;8873;48.818;9.422;2024-03-02T10:08:48;13.60;;;6.15;;
17510;SDS011;8873;48.818;9.422;2024-03-02T10:14:10;11.63;;;6.38;;
17510;SDS011;8873;48.818;9.422;2024-03-02T10:16:39;36.28;;;12.98;;
17510;SDS011;8873;48.818;9.422;2024-03-02T10:19:19;7.10;;;4.97;;
17510;SDS011;8873;48.818;9.422;2024-03-02T10:21:53;8.38;;;4.13;;
17510;SDS011;8873;48.818;9.422;2024-03-02T10:24:34;7.43;;;5.10;;
17510;SDS011;8873;48.818;9.422;2024-03-02T10:27:06;9.20;;;4.57;;
17510;SDS011;8873;48.818;9.422;2024-03-02T10:29:39;6.57;;;4.45;;
17510;SDS011;8873;48.818;9.422;2024-03-02T10:32:08;7.70;;;4.13;;
17510;SDS011;8873;48.818;9.422;2024-03-02T10:34:39;5.30;;;3.45;;
17510;SDS011;8873;48.818;9.422;2024-03-02T10:37:10;4.40;;;3.38;;
17510;SDS011;8873;48.818;9.422;2024-03-02T10:39:39;3.92;;;2.78;;
17510;SDS011;8873;48.818;9.422;2024-03-02T10:42:10;3.58;;;2.47;;
17510;SDS011;8873;48.818;9.422;2024-03-02T10:44:40;3.38;;;2.28;;
17510;SDS011;8873;48.818;9.422;2024-03-02T10:47:11;2.33;;;2.13;;
17510;SDS011;8873;48.818;9.422;2024-03-02T10:49:41;5.13;;;2.50;;
17510;SDS011;8873;48.818;9.422;2024-03-02T10:52:09;2.67;;;2.13;;
17510;SDS011;8873;48.818;9.422;2024-03-02T10:54:37;6.18;;;2.60;;
17510;SDS011;8873;48.818;9.422;2024-03-02T10:57:07;2.45;;;2.25;;
17510;SDS011;8873;48.818;9.422;2024-03-02T10:59:37;3.38;;;2.70;;
17510;SDS011;8873;48.818;9.422;2024-03-02T11:02:09;2.53;;;2.33;;
17510;SDS011;8873;48.818;9.422;2024-03-02T11:04:39;2.90;;;2.40;;
17510;SDS011;8873;48.818;9.422;2024-03-02T11:07:08;2.92;;;2.00;;
17510;SDS011;8873;48.818;9.422;2024-03-02T11:09:38;2.08;;;1.95;;
17510;SDS011;8873;48.818;9.422;2024-03-02T11:12:09;2.15;;;1.98;;
17510;SDS011;8873;48.818;9.422;2024-03-02T11:14:40;2.25;;;2.05;;
17510;SDS011;8873;48.818;9.422;2024-03-02T11:17:13;3.08;;;2.20;;
17510;SDS011;8873;48.818;9.422;2024-03-02T11:19:42;2.20;;;2.10;;
17510;SDS011;8873;48.818;9.422;2024-03-02T11:22:10;2.10;;;1.90;;
17510;SDS011;8873;48.818;9.422;2024-03-02T11:24:38;2.17;;;1.98;;
17510;SDS011;8873;48.818;9.422;2024-03-02T11:27:06;2.25;;;2.05;;
17510;SDS011;8873;48.818;9.422;2024-03-02T11:29:44;2.05;;;1.52;;
17510;SDS011;8873;48.818;9.422;2024-03-02T11:32:15;1.67;;;1.60;;
17510;SDS011;8873;48.818;9.422;2024-03-02T11:34:43;1.77;;;1.67;;
17510;SDS011;8873;48.818;9.422;2024-03-02T11:37:13;1.63;;;1.60;;
17510;SDS011;8873;48.818;9.422;2024-03-02T11:39:41;1.83;;;1.73;;
17510;SDS011;8873;48.818;9.422;2024-03-02T11:42:09;2.55;;;1.60;;
17510;SDS011;8873;48.818;9.422;2024-03-02T11:44:38;1.60;;;1.50;;
17510;SDS011;8873;48.818;9.422;2024-03-02T11:47:06;1.45;;;1.45;;
17510;SDS011;8873;48.818;9.422;2024-03-02T11:49:40;1.50;;;1.40;;
17510;SDS011;8873;48.818;9.422;2024-03-02T11:52:09;1.40;;;1.40;;
17510;SDS011;8873;48.818;9.422;2024-03-02T11:54:38;1.20;;;1.20;;
17510;SDS011;8873;48.818;9.422;2024-03-02T11:57:07;1.33;;;1.33;;
17510;SDS011;8873;48.818;9.422;2024-03-02T11:59:35;1.20;;;1.20;;
17510;SDS011;8873;48.818;9.422;2024-03-02T12:02:03;1.38;;;1.38;;
17510;SDS011;8873;48.818;9.422;2024-03-02T12:04:33;1.48;;;1.38;;
17510;SDS011;8873;48.818;9.422;2024-03-02T12:07:03;2.00;;;1.23;;
17510;SDS011;8873;48.818;9.422;2024-03-02T12:09:32;1.38;;;1.38;;
17510;SDS011;8873;48.818;9.422;2024-03-02T12:12:03;2.03;;;1.80;;
17510;SDS011;8873;48.818;9.422;2024-03-02T12:14:32;1.60;;;1.50;;
17510;SDS011;8873;48.818;9.422;2024-03-02T12:16:59;1.50;;;1.40;;
17510;SDS011;8873;48.818;9.422;2024-03-02T12:19:27;1.58;;;1.48;;
17510;SDS011;8873;48.818;9.422;2024-03-02T12:21:56;2.03;;;1.90;;
17510;SDS011;8873;48.818;9.422;2024-03-02T12:24:26;1.73;;;1.63;;
17510;SDS011;8873;48.818;9.422;2024-03-02T12:27:01;1.80;;;1.70;;
17510;SDS011;8873;48.818;9.422;2024-03-02T12:29:30;1.60;;;1.60;;
17510;SDS011;8873;48.818;9.422;2024-03-02T12:31:57;1.55;;;1.55;;
17510;SDS011;8873;48.818;9.422;2024-03-02T12:34:28;2.42;;;1.60;;
17510;SDS011;8873;48.818;9.422;2024-03-02T12:36:56;1.40;;;1.30;;
17510;SDS011;8873;48.818;9.422;2024-03-02T12:39:26;2.55;;;1.80;;
17510;SDS011;8873;48.818;9.422;2024-03-02T12:41:59;1.45;;;1.35;;
17510;SDS011;8873;48.818;9.422;2024-03-02T12:44:27;1.80;;;1.70;;
17510;SDS011;8873;48.818;9.422;2024-03-02T12:46:56;2.17;;;1.80;;
17510;SDS011;8873;48.818;9.422;2024-03-02T12:49:27;1.80;;;1.70;;
17510;SDS011;8873;48.818;9.422;2024-03-02T12:51:58;1.80;;;1.70;;
17510;SDS011;8873;48.818;9.422;2024-03-02T12:54:27;1.88;;;1.77;;
17510;SDS011;8873;48.818;9.422;2024-03-02T12:56:56;1.70;;;1.60;;
17510;SDS011;8873;48.818;9.422;2024-03-02T12:59:24;1.88;;;1.77;;
17510;SDS011;8873;48.818;9.422;2024-03-02T13:01:55;1.77;;;1.70;;
17510;SDS011;8873;48.818;9.422;2024-03-02T13:04:29;1.77;;;1.73;;
17510;SDS011;8873;48.818;9.422;2024-03-02T13:06:57;1.98;;;1.88;;
17510;SDS011;8873;48.818;9.422;2024-03-02T13:09:25;1.80;;;1.70;;
17510;SDS011;8873;48.818;9.422;2024-03-02T13:11:54;2.53;;;1.90;;
17510;SDS011;8873;48.818;9.422;2024-03-02T13:14:23;1.42;;;1.42;;
17510;SDS011;8873;48.818;9.422;2024-03-02T13:16:51;1.42;;;1.35;;
17510;SDS011;8873;48.818;9.422;2024-03-02T13:19:19;1.30;;;1.30;;
17510;SDS011;8873;48.818;9.422;2024-03-02T13:21:47;1.23;;;1.23;;
17510;SDS011;8873;48.818;9.422;2024-03-02T13:24:17;1.60;;;1.50;;
17510;SDS011;8873;48.818;9.422;2024-03-02T13:26:48;1.45;;;1.45;;
17510;SDS011;8873;48.818;9.422;2024-03-02T13:29:17;1.95;;;1.48;;
17510;SDS011;8873;48.818;9.422;2024-03-02T13:31:45;1.20;;;1.20;;
17510;SDS011;8873;48.818;9.422;2024-03-02T13:37:05;1.40;;;1.40;;
17510;SDS011;8873;48.818;9.422;2024-03-02T13:39:33;1.50;;;1.40;;
17510;SDS011;8873;48.818;9.422;2024-03-02T13:42:08;1.13;;;1.13;;
17510;SDS011;8873;48.818;9.422;2024-03-02T13:44:37;1.20;;;1.20;;
17510;SDS011;8873;48.818;9.422;2024-03-02T13:47:05;1.23;;;1.23;;
17510;SDS011;8873;48.818;9.422;2024-03-02T13:49:38;2.03;;;1.20;;
17510;SDS011;8873;48.818;9.422;2024-03-02T13:52:14;1.98;;;1.33;;
17510;SDS011;8873;48.818;9.422;2024-03-02T13:54:43;1.17;;;1.17;;
17510;SDS011;8873;48.818;9.422;2024-03-02T13:57:12;1.10;;;1.10;;
17510;SDS011;8873;48.818;9.422;2024-03-02T13:59:41;1.30;;;1.15;;
17510;SDS011;8873;48.818;9.422;2024-03-02T14:02:10;2.50;;;1.23;;
17510;SDS011;8873;48.818;9.422;2024-03-02T14:04:42;1.27;;;1.17;;
17510;SDS011;8873;48.818;9.422;2024-03-02T14:07:09;1.80;;;1.20;;
17510;SDS011;8873;48.818;9.422;2024-03-02T14:09:40;1.00;;;1.00;;
17510;SDS011;8873;48.818;9.422;2024-03-02T14:12:10;1.30;;;1.20;;
17510;SDS011;8873;48.818;9.422;2024-03-02T14:14:39;1.20;;;1.13;;
17510;SDS011;8873;48.818;9.422;2024-03-02T14:17:08;1.20;;;1.20;;
17510;SDS011;8873;48.818;9.422;2024-03-02T14:19:41;1.10;;;1.10;;
17510;SDS011;8873;48.818;9.422;2024-03-02T14:22:09;1.20;;;1.20;;
17510;SDS011;8873;48.818;9.422;2024-03-02T14:24:42;1.20;;;1.20;;
17510;SDS011;8873;48.818;9.422;2024-03-02T14:27:10;1.10;;;1.10;;
17510;SDS011;8873;48.818;9.422;2024-03-02T14:29:53;0.90;;;0.90;;
17510;SDS011;8873;48.818;9.422;2024-03-02T14:32:23;1.20;;;1.20;;
17510;SDS011;8873;48.818;9.422;2024-03-02T14:34:51;1.40;;;1.40;;
17510;SDS011;8873;48.818;9.422;2024-03-02T14:37:23;1.70;;;1.33;;
17510;SDS011;8873;48.818;9.422;2024-03-02T14:39:51;1.33;;;1.33;;
17510;SDS011;8873;48.818;9.422;2024-03-02T14:42:18;1.08;;;1.08;;
17510;SDS011;8873;48.818;9.422;2024-03-02T14:44:46;1.35;;;1.27;;
17510;SDS011;8873;48.818;9.422;2024-03-02T14:47:14;1.60;;;1.50;;
17510;SDS011;8873;48.818;9.422;2024-03-02T14:49:44;1.10;;;1.10;;
17510;SDS011;8873;48.818;9.422;2024-03-02T14:52:18;1.73;;;1.30;;
17510;SDS011;8873;48.818;9.422;2024-03-02T14:54:48;1.40;;;1.40;;
17510;SDS011;8873;48.818;9.422;2024-03-02T14:57:15;1.55;;;1.55;;
17510;SDS011;8873;48.818;9.422;2024-03-02T14:59:49;1.95;;;1.85;;
17510;SDS011;8873;48.818;9.422;2024-03-02T15:02:18;1.60;;;1.50;;